Time;durP1;ratioP1;P1;durP2;ratioP2;P2;SDS_P1;SDS_P2;PMS_P1;PMS_P2;Temp;Humidity;BMP_temperature;BMP_pressure;BME280_temperature;BME280_humidity;BME280_pressure;Samples;Min_cycle;Max_cycle;Signal;HPM_P1;HPM_P2
2022/03/21 00:00:38;;;;;;;21.73;14.00;;;;;;;;;;5096313;28;20069;-71
2022/03/21 00:03:06;;;;;;;19.70;13.02;;;;;;;;;;5080575;28;20530;-70
2022/03/21 00:05:32;;;;;;;26.35;14.35;;;;;;;;;;5097091;28;20016;-71
2022/03/21 00:07:58;;;;;;;22.25;13.27;;;;;;;;;;5097891;28;20055;-71
2022/03/21 00:10:24;;;;;;;21.40;12.93;;;;;;;;;;5090647;28;20035;-71
2022/03/21 00:12:51;;;;;;;20.45;12.38;;;;;;;;;;5095662;28;20481;-70
2022/03/21 00:15:17;;;;;;;22.05;12.85;;;;;;;;;;5106862;28;20020;-71
2022/03/21 00:17:43;;;;;;;19.52;13.18;;;;;;;;;;5101195;28;20355;-71
2022/03/21 00:20:10;;;;;;;18.95;12.20;;;;;;;;;;5097379;28;20111;-69
2022/03/21 00:22:37;;;;;;;19.67;12.55;;;;;;;;;;5096443;28;20049;-69
2022/03/21 00:25:04;;;;;;;20.42;12.68;;;;;;;;;;5093697;28;20028;-70
2022/03/21 00:27:30;;;;;;;21.75;13.30;;;;;;;;;;5111407;28;20051;-69
2022/03/21 00:29:55;;;;;;;20.27;13.45;;;;;;;;;;5098982;28;20465;-69
2022/03/21 00:32:21;;;;;;;26.52;16.25;;;;;;;;;;5097039;28;20347;-69
2022/03/21 00:34:47;;;;;;;22.92;13.48;;;;;;;;;;5079080;28;20059;-70
2022/03/21 00:37:13;;;;;;;18.38;12.32;;;;;;;;;;5093112;28;20094;-69
2022/03/21 00:39:40;;;;;;;18.48;12.35;;;;;;;;;;5096181;28;20028;-69
2022/03/21 00:42:06;;;;;;;18.90;12.40;;;;;;;;;;5097216;28;20027;-68
2022/03/21 00:44:33;;;;;;;19.77;12.15;;;;;;;;;;5108248;28;20039;-70
2022/03/21 00:46:59;;;;;;;21.05;13.32;;;;;;;;;;5110723;28;20028;-69
2022/03/21 00:49:25;;;;;;;18.70;11.93;;;;;;;;;;5109888;28;20027;-71
2022/03/21 00:51:51;;;;;;;18.58;12.10;;;;;;;;;;5111168;28;20030;-71
2022/03/21 00:54:17;;;;;;;20.02;12.18;;;;;;;;;;5110261;28;20065;-69
2022/03/21 00:56:43;;;;;;;20.10;12.40;;;;;;;;;;5092396;28;20019;-69
2022/03/21 00:59:09;;;;;;;18.83;12.45;;;;;;;;;;5110310;28;20039;-68
2022/03/21 01:01:35;;;;;;;19.88;12.07;;;;;;;;;;5110350;28;20416;-70
2022/03/21 01:04:01;;;;;;;20.02;12.35;;;;;;;;;;5109814;28;20031;-70
2022/03/21 01:06:27;;;;;;;18.95;12.55;;;;;;;;;;5109607;28;20019;-71
2022/03/21 01:08:53;;;;;;;18.73;12.15;;;;;;;;;;5109986;28;20046;-71
2022/03/21 01:11:19;;;;;;;18.42;12.20;;;;;;;;;;5109440;28;20027;-71
2022/03/21 01:13:45;;;;;;;19.40;12.40;;;;;;;;;;5092417;28;20035;-71
2022/03/21 01:16:11;;;;;;;19.73;12.23;;;;;;;;;;5109794;28;20392;-70
2022/03/21 01:18:37;;;;;;;19.55;12.13;;;;;;;;;;5111561;28;20432;-69
2022/03/21 01:21:03;;;;;;;18.58;12.90;;;;;;;;;;5097565;28;20025;-69
2022/03/21 01:23:29;;;;;;;18.38;12.45;;;;;;;;;;5096121;28;20043;-69
2022/03/21 01:25:56;;;;;;;20.50;13.15;;;;;;;;;;5096294;28;20480;-69
2022/03/21 01:28:22;;;;;;;21.73;13.50;;;;;;;;;;5074977;28;20027;-68
2022/03/21 01:30:48;;;;;;;21.73;12.45;;;;;;;;;;5094889;28;20032;-69
2022/03/21 01:33:14;;;;;;;22.88;13.55;;;;;;;;;;5096233;28;20370;-69
2022/03/21 01:35:39;;;;;;;19.85;12.55;;;;;;;;;;5096266;28;20024;-69
2022/03/21 01:38:05;;;;;;;18.73;11.68;;;;;;;;;;5095961;28;20110;-70
2022/03/21 01:40:31;;;;;;;20.35;12.65;;;;;;;;;;5094174;28;20413;-69
2022/03/21 01:42:57;;;;;;;21.20;13.52;;;;;;;;;;5075171;28;20020;-69
2022/03/21 01:45:28;;;;;;;21.17;12.18;;;;;;;;;;5106672;28;20034;-69
2022/03/21 01:47:54;;;;;;;20.45;12.65;;;;;;;;;;5098393;28;20027;-69
2022/03/21 01:50:20;;;;;;;19.23;12.75;;;;;;;;;;5095903;28;20499;-70
2022/03/21 01:52:46;;;;;;;18.17;12.07;;;;;;;;;;5095542;28;20016;-70
2022/03/21 01:58:02;;;;;;;17.45;11.80;;;;;;;;;;5108021;28;20519;-69
2022/03/21 02:00:28;;;;;;;19.75;12.05;;;;;;;;;;5094824;28;20016;-69
2022/03/21 02:02:54;;;;;;;17.60;12.05;;;;;;;;;;5096254;28;20020;-69
2022/03/21 02:05:20;;;;;;;20.85;12.63;;;;;;;;;;5095984;28;20032;-69
2022/03/21 02:07:47;;;;;;;18.80;12.48;;;;;;;;;;5095563;28;20054;-70
2022/03/21 02:10:13;;;;;;;19.95;12.60;;;;;;;;;;5088018;28;20496;-69
2022/03/21 02:12:39;;;;;;;21.10;12.48;;;;;;;;;;5094991;28;20137;-69
2022/03/21 02:15:05;;;;;;;19.20;12.98;;;;;;;;;;5078043;28;20070;-69
2022/03/21 02:17:34;;;;;;;20.65;12.88;;;;;;;;;;5095999;28;20036;-69
2022/03/21 02:20:04;;;;;;;20.00;12.73;;;;;;;;;;5077730;28;20463;-69
2022/03/21 02:22:30;;;;;;;18.05;11.43;;;;;;;;;;5092277;28;20041;-69
2022/03/21 02:24:56;;;;;;;21.00;12.73;;;;;;;;;;5110114;28;20028;-69
2022/03/21 02:27:22;;;;;;;18.48;12.10;;;;;;;;;;5099984;28;20028;-71
2022/03/21 02:29:49;;;;;;;21.27;12.55;;;;;;;;;;5099401;28;20044;-70
2022/03/21 02:32:16;;;;;;;18.60;12.48;;;;;;;;;;5112541;28;20103;-70
2022/03/21 02:34:42;;;;;;;19.25;12.32;;;;;;;;;;5111287;28;20027;-69
2022/03/21 02:37:10;;;;;;;17.42;12.15;;;;;;;;;;5095900;28;20028;-69
2022/03/21 02:39:36;;;;;;;17.83;10.80;;;;;;;;;;5098854;28;20475;-71
2022/03/21 02:42:03;;;;;;;17.77;11.93;;;;;;;;;;5081755;28;20037;-69
2022/03/21 02:44:32;;;;;;;18.83;12.75;;;;;;;;;;5099215;28;20032;-70
2022/03/21 02:46:59;;;;;;;17.65;11.57;;;;;;;;;;5099622;28;20088;-70
2022/03/21 02:49:25;;;;;;;18.48;12.10;;;;;;;;;;5078717;28;20073;-69
2022/03/21 02:51:52;;;;;;;19.80;11.73;;;;;;;;;;5096707;28;20359;-69
2022/03/21 02:54:21;;;;;;;17.92;11.50;;;;;;;;;;5108771;28;20035;-70
2022/03/21 02:56:47;;;;;;;19.30;11.75;;;;;;;;;;5102872;28;20084;-71
2022/03/21 02:59:13;;;;;;;17.73;12.48;;;;;;;;;;5099324;28;20020;-70
2022/03/21 03:01:39;;;;;;;20.10;12.20;;;;;;;;;;5096032;28;20046;-70
2022/03/21 03:04:05;;;;;;;17.85;11.15;;;;;;;;;;5093026;28;20042;-69
2022/03/21 03:06:31;;;;;;;19.15;11.75;;;;;;;;;;5097983;28;20088;-69
2022/03/21 03:08:57;;;;;;;16.08;10.52;;;;;;;;;;5089716;28;20522;-69
2022/03/21 03:11:23;;;;;;;19.17;11.55;;;;;;;;;;5105784;28;20020;-69
2022/03/21 03:13:49;;;;;;;20.27;11.60;;;;;;;;;;5098293;28;20058;-70
2022/03/21 03:16:15;;;;;;;18.02;11.20;;;;;;;;;;5094650;28;20472;-69
2022/03/21 03:18:44;;;;;;;18.27;12.07;;;;;;;;;;5098276;28;20039;-69
2022/03/21 03:21:10;;;;;;;17.90;11.23;;;;;;;;;;5098416;28;20020;-70
2022/03/21 03:23:38;;;;;;;15.90;11.07;;;;;;;;;;5098665;28;20439;-70
2022/03/21 03:26:05;;;;;;;16.63;11.23;;;;;;;;;;5098325;28;20545;-69
2022/03/21 03:28:31;;;;;;;16.75;10.93;;;;;;;;;;5096334;28;20131;-68
2022/03/21 03:31:01;;;;;;;16.17;10.45;;;;;;;;;;5096512;28;20437;-70
2022/03/21 03:33:29;;;;;;;17.70;11.43;;;;;;;;;;5079255;28;20481;-69
2022/03/21 03:35:56;;;;;;;20.33;11.65;;;;;;;;;;5097732;28;20051;-70
2022/03/21 03:38:22;;;;;;;16.42;11.68;;;;;;;;;;5098901;28;20107;-70
2022/03/21 03:40:48;;;;;;;16.90;11.00;;;;;;;;;;5095878;28;20059;-70
2022/03/21 03:43:17;;;;;;;18.33;11.35;;;;;;;;;;5093659;28;20107;-70
2022/03/21 03:45:43;;;;;;;15.70;10.88;;;;;;;;;;5109649;28;20024;-70
2022/03/21 03:48:10;;;;;;;16.15;10.73;;;;;;;;;;5080154;28;20060;-69
2022/03/21 03:50:36;;;;;;;17.60;10.50;;;;;;;;;;5098330;28;20512;-69
2022/03/21 03:53:02;;;;;;;18.90;11.10;;;;;;;;;;5097985;28;20027;-70
2022/03/21 03:55:28;;;;;;;15.95;11.07;;;;;;;;;;5095341;28;20020;-69
2022/03/21 03:57:54;;;;;;;15.30;10.45;;;;;;;;;;5095323;28;20028;-70
2022/03/21 04:00:20;;;;;;;16.38;10.98;;;;;;;;;;5098463;28;20501;-69
2022/03/21 04:05:31;;;;;;;19.08;12.18;;;;;;;;;;5097949;28;20058;-69
2022/03/21 04:07:57;;;;;;;19.30;11.85;;;;;;;;;;5098071;28;20059;-69
2022/03/21 04:10:23;;;;;;;18.05;11.95;;;;;;;;;;5109440;28;20052;-70
2022/03/21 04:12:50;;;;;;;18.42;12.20;;;;;;;;;;5095895;28;20462;-70
2022/03/21 04:15:16;;;;;;;16.08;11.13;;;;;;;;;;5097466;28;20032;-70
2022/03/21 04:17:43;;;;;;;16.65;11.05;;;;;;;;;;5097947;28;20024;-69
2022/03/21 04:20:09;;;;;;;18.05;11.02;;;;;;;;;;5097785;28;20840;-69
2022/03/21 04:22:35;;;;;;;15.63;10.45;;;;;;;;;;5091203;28;20020;-69
2022/03/21 04:25:03;;;;;;;15.52;10.35;;;;;;;;;;5076137;28;20028;-69
2022/03/21 04:27:29;;;;;;;16.92;10.55;;;;;;;;;;5110471;28;20481;-69
2022/03/21 04:29:55;;;;;;;16.15;10.63;;;;;;;;;;5100014;28;20071;-70
2022/03/21 04:32:21;;;;;;;15.02;10.27;;;;;;;;;;5092380;28;20480;-69
2022/03/21 04:34:47;;;;;;;16.23;10.90;;;;;;;;;;5108433;28;20039;-72
2022/03/21 04:37:13;;;;;;;19.55;11.65;;;;;;;;;;5107762;28;20043;-70
2022/03/21 04:39:39;;;;;;;17.33;11.50;;;;;;;;;;5092721;28;20027;-71
2022/03/21 04:42:05;;;;;;;17.40;11.73;;;;;;;;;;5082759;28;20434;-70
2022/03/21 04:44:32;;;;;;;19.25;11.98;;;;;;;;;;5096785;28;20696;-72
2022/03/21 04:46:58;;;;;;;17.05;11.77;;;;;;;;;;5095352;28;20380;-71
2022/03/21 04:49:24;;;;;;;16.88;11.05;;;;;;;;;;5092041;28;20032;-71
2022/03/21 04:51:50;;;;;;;19.20;12.27;;;;;;;;;;5094803;28;20024;-70
2022/03/21 04:54:16;;;;;;;17.73;11.90;;;;;;;;;;5078401;28;20180;-70
2022/03/21 04:56:42;;;;;;;15.85;10.95;;;;;;;;;;5078948;28;20125;-70
2022/03/21 04:59:09;;;;;;;17.25;11.23;;;;;;;;;;5095370;28;20467;-70
2022/03/21 05:01:36;;;;;;;17.90;11.13;;;;;;;;;;5108630;28;20020;-69
2022/03/21 05:04:02;;;;;;;17.42;10.98;;;;;;;;;;5092925;28;20016;-68
2022/03/21 05:06:28;;;;;;;17.00;10.93;;;;;;;;;;5095759;28;20020;-69
2022/03/21 05:08:54;;;;;;;16.48;11.00;;;;;;;;;;5104545;28;20110;-70
2022/03/21 05:11:20;;;;;;;18.42;11.63;;;;;;;;;;5103933;28;20023;-70
2022/03/21 05:13:47;;;;;;;16.00;11.15;;;;;;;;;;5095720;28;20035;-71
2022/03/21 05:16:13;;;;;;;19.42;11.70;;;;;;;;;;5090713;28;20028;-70
2022/03/21 05:18:39;;;;;;;17.27;11.25;;;;;;;;;;5096173;28;20034;-71
2022/03/21 05:21:05;;;;;;;16.95;11.10;;;;;;;;;;5096792;28;20035;-70
2022/03/21 05:31:46;;;;;;;18.80;11.13;;;;;;;;;;5095900;28;20089;-71
2022/03/21 05:36:56;;;;;;;17.85;11.07;;;;;;;;;;5108108;28;20157;-71
2022/03/21 05:39:25;;;;;;;19.88;12.40;;;;;;;;;;5108728;28;20035;-71
2022/03/21 05:41:52;;;;;;;17.77;11.98;;;;;;;;;;5092225;28;20027;-70
2022/03/21 05:44:18;;;;;;;19.52;11.82;;;;;;;;;;5088557;28;20478;-71
2022/03/21 05:46:44;;;;;;;17.02;11.57;;;;;;;;;;5108055;28;20130;-70
2022/03/21 05:49:10;;;;;;;17.55;12.07;;;;;;;;;;5108400;28;20052;-70
2022/03/21 05:51:37;;;;;;;19.02;11.85;;;;;;;;;;5110446;28;20047;-70
2022/03/21 05:54:08;;;;;;;17.35;12.15;;;;;;;;;;5096468;28;20035;-70
2022/03/21 05:56:35;;;;;;;19.65;12.38;;;;;;;;;;5076258;28;20020;-71
2022/03/21 06:00:20;;;;;;;17.65;11.30;;;;;;;;;;5105711;28;20019;-74
2022/03/21 06:01:48;;;;;;;16.55;11.25;;;;;;;;;;5105355;28;20038;-67
2022/03/21 06:04:15;;;;;;;16.27;10.18;;;;;;;;;;5107525;28;20075;-69
2022/03/21 06:06:41;;;;;;;16.80;11.02;;;;;;;;;;5095436;28;20016;-67
2022/03/21 06:09:07;;;;;;;18.23;10.55;;;;;;;;;;5104597;28;20496;-66
2022/03/21 06:11:34;;;;;;;18.45;10.88;;;;;;;;;;5103180;28;20046;-66
2022/03/21 06:14:01;;;;;;;18.75;11.07;;;;;;;;;;5104626;28;20118;-66
2022/03/21 06:16:26;;;;;;;17.48;10.98;;;;;;;;;;5092313;28;20031;-66
2022/03/21 06:18:53;;;;;;;14.82;10.02;;;;;;;;;;5106680;28;20028;-66
2022/03/21 06:21:19;;;;;;;16.67;10.82;;;;;;;;;;5105375;28;20016;-69
2022/03/21 06:23:46;;;;;;;15.05;10.68;;;;;;;;;;5098547;28;20040;-71
2022/03/21 06:26:12;;;;;;;15.77;10.85;;;;;;;;;;5077363;28;20114;-71
2022/03/21 06:28:38;;;;;;;20.55;12.32;;;;;;;;;;5093459;28;20028;-71
2022/03/21 06:31:05;;;;;;;19.55;13.13;;;;;;;;;;5092480;28;20028;-72
2022/03/21 06:33:31;;;;;;;20.92;14.65;;;;;;;;;;5094532;28;20512;-71
2022/03/21 06:35:58;;;;;;;20.17;13.70;;;;;;;;;;5077694;28;20035;-72
2022/03/21 06:38:24;;;;;;;21.25;13.63;;;;;;;;;;5095524;28;20028;-72
2022/03/21 06:40:50;;;;;;;22.45;14.82;;;;;;;;;;5078293;28;20024;-72
2022/03/21 06:43:17;;;;;;;21.17;14.73;;;;;;;;;;5090826;28;20093;-71
2022/03/21 06:45:43;;;;;;;19.60;13.68;;;;;;;;;;5087522;28;20077;-71
2022/03/21 06:48:09;;;;;;;20.30;13.60;;;;;;;;;;5077344;28;20532;-72
2022/03/21 06:50:35;;;;;;;20.23;13.85;;;;;;;;;;5094875;28;20103;-72
2022/03/21 06:53:02;;;;;;;25.65;17.02;;;;;;;;;;5095405;28;20051;-71
2022/03/21 06:55:28;;;;;;;22.23;16.48;;;;;;;;;;5091823;28;20038;-71
2022/03/21 06:57:55;;;;;;;21.02;15.30;;;;;;;;;;5088358;28;20067;-71
2022/03/21 07:00:21;;;;;;;20.67;15.65;;;;;;;;;;5095168;28;20059;-71
2022/03/21 07:02:47;;;;;;;23.45;14.48;;;;;;;;;;5094865;28;20068;-70
2022/03/21 07:05:13;;;;;;;17.83;12.18;;;;;;;;;;5076718;28;20026;-71
2022/03/21 07:07:39;;;;;;;16.35;11.48;;;;;;;;;;5093745;28;20043;-73
2022/03/21 07:10:06;;;;;;;15.82;11.63;;;;;;;;;;5107781;28;20073;-71
2022/03/21 07:12:34;;;;;;;17.70;11.40;;;;;;;;;;5097920;28;20023;-71
2022/03/21 07:15:00;;;;;;;;;;;;;;;;;;5098934;28;20040;-71
2022/03/21 07:17:26;;;;;;;19.13;11.50;;;;;;;;;;5098765;28;19962;-71
2022/03/21 07:19:52;;;;;;;19.25;11.80;;;;;;;;;;5098613;28;20036;-72
2022/03/21 07:22:18;;;;;;;21.10;13.23;;;;;;;;;;5094090;28;20030;-71
2022/03/21 07:24:44;;;;;;;21.80;13.68;;;;;;;;;;5097964;28;20032;-71
2022/03/21 07:27:12;;;;;;;19.25;13.77;;;;;;;;;;5097837;28;20485;-71
2022/03/21 07:29:38;;;;;;;21.77;13.93;;;;;;;;;;5098018;28;20040;-71
2022/03/21 07:32:04;;;;;;;23.05;14.50;;;;;;;;;;5098247;28;20027;-72
2022/03/21 07:34:30;;;;;;;19.08;13.13;;;;;;;;;;5095124;28;20496;-71
2022/03/21 07:36:56;;;;;;;23.33;13.57;;;;;;;;;;5109478;28;20023;-72
2022/03/21 07:39:22;;;;;;;19.90;13.30;;;;;;;;;;5098223;28;20020;-71
2022/03/21 07:41:48;;;;;;;18.58;13.13;;;;;;;;;;5097785;28;20115;-71
2022/03/21 07:47:17;;;;;;;19.33;13.52;;;;;;;;;;5097603;28;20187;-72
2022/03/21 07:47:20;;;;;;;20.60;12.98;;;;;;;;;;5097171;28;20122;-73
2022/03/21 07:49:47;;;;;;;18.73;12.70;;;;;;;;;;5097737;28;20030;-71
2022/03/21 07:52:14;;;;;;;18.35;12.93;;;;;;;;;;5093046;28;20062;-70
2022/03/21 07:54:40;;;;;;;18.58;13.18;;;;;;;;;;5097460;28;20039;-74
2022/03/21 07:57:06;;;;;;;17.98;12.82;;;;;;;;;;5097396;28;20041;-76
2022/03/21 07:59:32;;;;;;;17.38;11.73;;;;;;;;;;5097384;28;20106;-72
2022/03/21 08:01:58;;;;;;;15.00;11.57;;;;;;;;;;5097414;28;20509;-73
2022/03/21 08:04:25;;;;;;;15.35;11.45;;;;;;;;;;5076617;28;20032;-73
2022/03/21 08:06:57;;;;;;;14.63;11.27;;;;;;;;;;5095656;28;20149;-73
2022/03/21 08:09:24;;;;;;;17.13;12.27;;;;;;;;;;5108080;28;20048;-73
2022/03/21 08:11:51;;;;;;;16.80;11.70;;;;;;;;;;5100451;28;20396;-72
2022/03/21 08:14:17;;;;;;;15.25;12.02;;;;;;;;;;5097417;28;20112;-72
2022/03/21 08:16:43;;;;;;;16.10;12.13;;;;;;;;;;5109157;28;20043;-73
2022/03/21 08:19:09;;;;;;;15.80;11.95;;;;;;;;;;5094082;28;20812;-73
2022/03/21 08:21:35;;;;;;;15.57;12.48;;;;;;;;;;5078106;28;20020;-73
2022/03/21 08:24:03;;;;;;;15.32;12.35;;;;;;;;;;5097075;28;20466;-72
2022/03/21 08:26:29;;;;;;;14.98;11.93;;;;;;;;;;5103252;27;20020;-73
2022/03/21 08:28:55;;;;;;;15.95;12.15;;;;;;;;;;5092193;28;20399;-73
2022/03/21 08:31:21;;;;;;;18.67;12.82;;;;;;;;;;5093696;28;20081;-73
2022/03/21 08:33:47;;;;;;;16.67;12.73;;;;;;;;;;5095767;28;20036;-74
2022/03/21 08:36:14;;;;;;;19.05;13.45;;;;;;;;;;5080117;28;20048;-73
2022/03/21 08:38:40;;;;;;;18.55;13.45;;;;;;;;;;5078907;28;20020;-73
2022/03/21 08:41:06;;;;;;;17.10;13.30;;;;;;;;;;5079667;28;20024;-73
2022/03/21 08:43:32;;;;;;;16.90;13.52;;;;;;;;;;5094549;28;20024;-73
2022/03/21 08:45:58;;;;;;;17.77;13.80;;;;;;;;;;5076329;28;20473;-72
2022/03/21 08:49:23;;;;;;;19.52;13.73;;;;;;;;;;5096596;28;20035;-73
2022/03/21 08:51:10;;;;;;;18.30;13.40;;;;;;;;;;5096250;28;20027;-74
2022/03/21 08:53:36;;;;;;;17.95;13.02;;;;;;;;;;5099837;28;20040;-72
2022/03/21 08:56:03;;;;;;;18.17;13.90;;;;;;;;;;5106666;28;20028;-73
2022/03/21 08:58:29;;;;;;;18.80;14.13;;;;;;;;;;5075508;28;20055;-73
2022/03/21 09:00:55;;;;;;;21.50;14.45;;;;;;;;;;5094204;28;20049;-73
2022/03/21 09:03:21;;;;;;;19.70;13.52;;;;;;;;;;5096828;28;20595;-72
2022/03/21 09:05:47;;;;;;;17.65;13.40;;;;;;;;;;5096346;28;20024;-73
2022/03/21 09:08:13;;;;;;;19.13;13.93;;;;;;;;;;5097722;28;20027;-72
2022/03/21 09:10:39;;;;;;;22.15;13.73;;;;;;;;;;5092084;28;20077;-72
2022/03/21 09:13:05;;;;;;;18.83;13.52;;;;;;;;;;5093467;28;20024;-72
2022/03/21 09:15:31;;;;;;;19.45;14.07;;;;;;;;;;5077957;28;20089;-71
2022/03/21 09:17:58;;;;;;;19.83;13.55;;;;;;;;;;5100522;28;20111;-71
2022/03/21 09:20:24;;;;;;;19.85;13.73;;;;;;;;;;5107953;28;20022;-71
2022/03/21 09:22:50;;;;;;;17.25;12.20;;;;;;;;;;5107275;28;20481;-71
2022/03/21 09:25:17;;;;;;;18.73;13.85;;;;;;;;;;5091974;28;20080;-71
2022/03/21 09:27:43;;;;;;;16.67;12.45;;;;;;;;;;5106570;28;20432;-71
2022/03/21 09:30:11;;;;;;;18.05;12.52;;;;;;;;;;5096283;28;20043;-71
2022/03/21 09:32:37;;;;;;;20.23;12.88;;;;;;;;;;5099214;28;20098;-71
2022/03/21 09:35:05;;;;;;;16.98;12.25;;;;;;;;;;5106081;28;20066;-71
2022/03/21 09:37:31;;;;;;;19.45;12.82;;;;;;;;;;5075662;28;20512;-72
2022/03/21 09:39:58;;;;;;;19.77;11.73;;;;;;;;;;5093041;28;20043;-71
2022/03/21 09:42:24;;;;;;;16.45;11.40;;;;;;;;;;5086319;28;20107;-71
2022/03/21 09:44:53;;;;;;;19.60;12.27;;;;;;;;;;5098561;28;20126;-72
2022/03/21 09:50:08;;;;;;;18.63;13.15;;;;;;;;;;5095584;28;20409;-72
2022/03/21 09:52:34;;;;;;;18.42;12.38;;;;;;;;;;5093544;28;20449;-71
2022/03/21 09:55:02;;;;;;;21.10;12.05;;;;;;;;;;5092278;28;20111;-72
2022/03/21 09:57:28;;;;;;;19.60;13.38;;;;;;;;;;5095204;28;20362;-72
2022/03/21 09:59:58;;;;;;;19.05;13.02;;;;;;;;;;5095173;28;20084;-72
2022/03/21 10:02:24;;;;;;;18.60;13.93;;;;;;;;;;5095848;28;20023;-71
2022/03/21 10:04:50;;;;;;;28.48;22.35;;;;;;;;;;5077976;28;20384;-72
2022/03/21 10:07:26;;;;;;;20.50;15.02;;;;;;;;;;5091081;28;20041;-72
2022/03/21 10:10:16;;;;;;;21.95;13.18;;;;;;;;;;5088664;28;20072;-71
2022/03/21 10:12:43;;;;;;;19.60;13.27;;;;;;;;;;5077363;28;20042;-72
2022/03/21 10:15:10;;;;;;;20.35;15.75;;;;;;;;;;5106703;28;20082;-72
2022/03/21 10:17:36;;;;;;;18.23;11.20;;;;;;;;;;5100111;28;20016;-72
2022/03/21 10:20:03;;;;;;;18.95;13.07;;;;;;;;;;5093466;28;20028;-71
2022/03/21 10:22:43;;;;;;;21.20;12.98;;;;;;;;;;5091860;28;20012;-72
2022/03/21 10:25:10;;;;;;;20.60;14.20;;;;;;;;;;5090732;28;20031;-71
2022/03/21 10:27:40;;;;;;;18.70;12.70;;;;;;;;;;5093487;28;20023;-72
2022/03/21 10:30:08;;;;;;;19.02;13.02;;;;;;;;;;5094570;28;20052;-72
2022/03/21 10:32:44;;;;;;;18.60;13.55;;;;;;;;;;5095270;28;20123;-72
2022/03/21 10:35:11;;;;;;;18.38;13.77;;;;;;;;;;5094822;28;20454;-72
2022/03/21 10:37:42;;;;;;;16.90;12.47;;;;;;;;;;5093399;28;20032;-71
2022/03/21 10:40:16;;;;;;;20.65;13.80;;;;;;;;;;5091127;28;20119;-72
2022/03/21 10:42:55;;;;;;;18.13;12.98;;;;;;;;;;5093992;28;20074;-72
2022/03/21 10:45:22;;;;;;;19.23;12.63;;;;;;;;;;5104953;28;20020;-72
2022/03/21 10:47:49;;;;;;;19.63;13.90;;;;;;;;;;5102920;28;20066;-71
2022/03/21 10:50:15;;;;;;;15.20;11.43;;;;;;;;;;5099679;28;20028;-71
2022/03/21 10:52:41;;;;;;;18.95;12.73;;;;;;;;;;5111080;28;20503;-71
2022/03/21 10:55:07;;;;;;;17.73;13.38;;;;;;;;;;5095724;28;20074;-71
2022/03/21 10:57:39;;;;;;;18.10;12.32;;;;;;;;;;5098198;28;20024;-71
2022/03/21 11:00:18;;;;;;;18.33;12.70;;;;;;;;;;5098301;28;20043;-69
2022/03/21 11:02:51;;;;;;;16.73;10.65;;;;;;;;;;5098591;28;20031;-66
2022/03/21 11:05:17;;;;;;;17.80;12.38;;;;;;;;;;5099002;28;20022;-67
2022/03/21 11:07:44;;;;;;;20.75;13.82;;;;;;;;;;5097661;28;20160;-67
2022/03/21 11:10:11;;;;;;;15.98;11.45;;;;;;;;;;5109827;28;20023;-67
2022/03/21 11:12:38;;;;;;;17.42;10.75;;;;;;;;;;5098423;28;20020;-66
2022/03/21 11:15:06;;;;;;;16.23;11.98;;;;;;;;;;5098201;28;20522;-66
2022/03/21 11:17:33;;;;;;;18.83;12.52;;;;;;;;;;5098078;28;20024;-67
2022/03/21 11:20:02;;;;;;;17.02;12.38;;;;;;;;;;5098625;28;20028;-67
2022/03/21 11:22:29;;;;;;;16.88;12.27;;;;;;;;;;5095242;28;20068;-66
2022/03/21 11:25:00;;;;;;;16.67;12.00;;;;;;;;;;5092839;28;20020;-66
2022/03/21 11:27:36;;;;;;;17.65;12.30;;;;;;;;;;5087953;28;20024;-67
2022/03/21 11:30:05;;;;;;;16.63;11.75;;;;;;;;;;5081805;28;20315;-69
2022/03/21 11:32:37;;;;;;;16.70;9.68;;;;;;;;;;5097812;28;20054;-66
2022/03/21 11:35:07;;;;;;;15.95;10.07;;;;;;;;;;5097468;28;20075;-66
2022/03/21 11:37:34;;;;;;;16.35;11.80;;;;;;;;;;5095588;28;20024;-66
2022/03/21 11:40:19;;;;;;;15.57;11.38;;;;;;;;;;5087288;28;20085;-67
2022/03/21 11:42:45;;;;;;;15.30;9.23;;;;;;;;;;5123486;27;20519;-65
2022/03/21 11:45:27;;;;;;;14.88;10.68;;;;;;;;;;5111098;28;20024;-65
2022/03/21 11:48:12;;;;;;;13.73;9.18;;;;;;;;;;5109659;27;20447;-64
2022/03/21 11:50:38;;;;;;;14.95;10.88;;;;;;;;;;5101708;28;20073;-63
2022/03/21 11:53:05;;;;;;;14.95;11.63;;;;;;;;;;5097432;28;20484;-64
2022/03/21 11:55:36;;;;;;;13.07;9.25;;;;;;;;;;5094199;28;20090;-64
2022/03/21 11:58:21;;;;;;;15.55;12.02;;;;;;;;;;5094709;28;20051;-65
2022/03/21 12:01:06;;;;;;;15.98;10.70;;;;;;;;;;5090088;28;20480;-65
2022/03/21 12:03:32;;;;;;;15.63;11.43;;;;;;;;;;5096401;28;20052;-64
2022/03/21 12:05:58;;;;;;;16.38;11.52;;;;;;;;;;5103491;28;20077;-64
2022/03/21 12:08:34;;;;;;;17.95;11.90;;;;;;;;;;5105511;28;20034;-64
2022/03/21 12:11:00;;;;;;;13.98;9.43;;;;;;;;;;5106333;28;20032;-62
2022/03/21 12:13:26;;;;;;;15.80;10.02;;;;;;;;;;5093487;28;20384;-64
2022/03/21 12:15:52;;;;;;;15.35;10.73;;;;;;;;;;5091186;28;20038;-62
2022/03/21 12:18:19;;;;;;;16.27;10.23;;;;;;;;;;5096010;28;20040;-66
2022/03/21 12:20:51;;;;;;;18.77;12.05;;;;;;;;;;5078464;28;20024;-66
2022/03/21 12:23:23;;;;;;;13.15;9.43;;;;;;;;;;5096072;28;20020;-66
2022/03/21 12:25:53;;;;;;;15.98;10.60;;;;;;;;;;5095195;28;20031;-66
2022/03/21 12:29:31;;;;;;;17.92;10.23;;;;;;;;;;5086519;28;20024;-66
2022/03/21 12:31:23;;;;;;;12.82;8.88;;;;;;;;;;5092813;28;20051;-66
2022/03/21 12:33:49;;;;;;;15.43;11.95;;;;;;;;;;5107873;28;20030;-67
2022/03/21 12:36:29;;;;;;;15.55;10.38;;;;;;;;;;5111135;28;20027;-66
2022/03/21 12:38:55;;;;;;;16.25;12.05;;;;;;;;;;5090221;28;20019;-66
2022/03/21 12:41:22;;;;;;;14.27;9.13;;;;;;;;;;5109938;28;20020;-66
2022/03/21 12:43:54;;;;;;;15.38;9.85;;;;;;;;;;5108136;28;20052;-67
2022/03/21 12:46:21;;;;;;;14.63;10.20;;;;;;;;;;5106975;28;20423;-67
2022/03/21 12:48:48;;;;;;;13.60;9.40;;;;;;;;;;5110945;28;20019;-66
2022/03/21 12:51:23;;;;;;;18.02;11.15;;;;;;;;;;5110076;28;20019;-67
2022/03/21 12:53:49;;;;;;;16.42;11.02;;;;;;;;;;5107515;28;20047;-67
2022/03/21 12:56:16;;;;;;;16.92;11.15;;;;;;;;;;5107142;28;20023;-67
2022/03/21 12:58:47;;;;;;;14.85;10.80;;;;;;;;;;5092471;28;20028;-67
2022/03/21 13:01:13;;;;;;;14.85;11.30;;;;;;;;;;5091892;28;20495;-67
2022/03/21 13:03:40;;;;;;;13.57;9.38;;;;;;;;;;5095709;28;20020;-67
2022/03/21 13:11:27;;;;;;;14.25;11.20;;;;;;;;;;5103082;28;20028;-67
2022/03/21 13:13:55;;;;;;;15.18;10.88;;;;;;;;;;5096285;28;20040;-66
2022/03/21 13:16:22;;;;;;;15.43;10.50;;;;;;;;;;5074250;28;20027;-66
2022/03/21 13:18:50;;;;;;;12.90;9.27;;;;;;;;;;5095563;28;20095;-66
2022/03/21 13:21:18;;;;;;;14.45;10.75;;;;;;;;;;5078708;28;20016;-67
2022/03/21 13:23:44;;;;;;;;;;;;;;;;;;5096907;28;20439;-66
2022/03/21 13:26:13;;;;;;;15.63;11.45;;;;;;;;;;5096254;28;20014;-67
2022/03/21 13:28:40;;;;;;;13.70;8.55;;;;;;;;;;5107935;28;20023;-66
2022/03/21 13:31:09;;;;;;;14.05;9.68;;;;;;;;;;5093064;28;20042;-66
2022/03/21 13:33:36;;;;;;;15.30;10.75;;;;;;;;;;5095671;28;20043;-67
2022/03/21 13:36:04;;;;;;;12.63;8.55;;;;;;;;;;5096263;28;20079;-66
2022/03/21 13:38:31;;;;;;;16.23;10.88;;;;;;;;;;5096053;28;20024;-67
2022/03/21 13:40:57;;;;;;;15.15;9.88;;;;;;;;;;5093098;28;20024;-67
2022/03/21 13:43:32;;;;;;;16.50;11.15;;;;;;;;;;5106662;28;20024;-67
2022/03/21 13:45:59;;;;;;;15.32;10.95;;;;;;;;;;5092952;28;20016;-68
2022/03/21 13:48:32;;;;;;;12.90;9.85;;;;;;;;;;5095922;28;20472;-67
2022/03/21 13:51:02;;;;;;;15.02;10.88;;;;;;;;;;5096008;28;20067;-67
2022/03/21 13:53:28;;;;;;;15.50;10.40;;;;;;;;;;5095493;28;20059;-67
2022/03/21 13:55:54;;;;;;;12.98;9.20;;;;;;;;;;5096129;28;20388;-67
2022/03/21 13:58:28;;;;;;;15.15;10.30;;;;;;;;;;5073762;28;20133;-67
2022/03/21 14:00:55;;;;;;;14.48;10.13;;;;;;;;;;5093786;28;20034;-67
2022/03/21 14:03:32;;;;;;;13.85;9.90;;;;;;;;;;5091852;28;20031;-67
2022/03/21 14:05:58;;;;;;;15.88;10.15;;;;;;;;;;5079816;28;20024;-66
2022/03/21 14:08:24;;;;;;;15.85;11.07;;;;;;;;;;5098877;28;20044;-67
2022/03/21 14:11:01;;;;;;;17.45;10.77;;;;;;;;;;5092269;28;20023;-66
2022/03/21 14:13:28;;;;;;;15.07;11.18;;;;;;;;;;5092179;28;20020;-67
2022/03/21 14:15:57;;;;;;;15.38;11.13;;;;;;;;;;5093409;28;20021;-67
2022/03/21 14:18:24;;;;;;;13.02;10.27;;;;;;;;;;5105183;28;20027;-67
2022/03/21 14:20:50;;;;;;;17.10;10.05;;;;;;;;;;5101722;28;20028;-67
2022/03/21 14:23:16;;;;;;;17.80;10.70;;;;;;;;;;5099354;28;20081;-66
2022/03/21 14:28:27;;;;;;;14.05;10.45;;;;;;;;;;5095771;28;20447;-66
2022/03/21 14:30:56;;;;;;;16.75;11.13;;;;;;;;;;5097512;28;20496;-67
2022/03/21 14:33:22;;;;;;;14.65;10.73;;;;;;;;;;5109613;28;20026;-66
2022/03/21 14:35:48;;;;;;;17.10;11.43;;;;;;;;;;5084882;28;20047;-66
2022/03/21 14:38:14;;;;;;;17.60;11.05;;;;;;;;;;5099020;28;20048;-66
2022/03/21 14:40:41;;;;;;;14.77;10.85;;;;;;;;;;5098298;28;20012;-66
2022/03/21 14:43:07;;;;;;;16.15;10.05;;;;;;;;;;5095882;28;20035;-66
2022/03/21 14:45:34;;;;;;;15.88;9.45;;;;;;;;;;5110065;28;20023;-66
2022/03/21 14:48:00;;;;;;;16.45;11.45;;;;;;;;;;5100941;28;20396;-66